Time;durP1;ratioP1;P1;durP2;ratioP2;P2;SDS_P1;SDS_P2;PMS_P1;PMS_P2;Temp;Humidity;BMP_temperature;BMP_pressure;BME280_temperature;BME280_humidity;BME280_pressure;Samples;Min_cycle;Max_cycle;Signal;HPM_P1;HPM_P2
2022/09/13 00:00:52;;;;;;;5.25;4.75;;;21.30;62.60;;;;;;5052845;28;20213;-66
2022/09/13 00:03:17;;;;;;;5.40;4.90;;;21.30;63.10;;;;;;5052950;28;20217;-66
2022/09/13 00:05:43;;;;;;;4.78;4.38;;;21.40;62.70;;;;;;5051739;28;20704;-66
2022/09/13 00:08:08;;;;;;;4.00;3.67;;;21.30;62.60;;;;;;5052617;28;20218;-66
2022/09/13 00:10:38;;;;;;;5.65;4.97;;;21.30;62.60;;;;;;5052649;28;20253;-67
2022/09/13 00:13:04;;;;;;;6.18;5.07;;;21.30;62.60;;;;;;5051758;28;20179;-67
2022/09/13 00:15:30;;;;;;;6.30;5.32;;;21.30;62.70;;;;;;5052919;28;20178;-69
2022/09/13 00:17:55;;;;;;;8.23;5.07;;;21.30;62.80;;;;;;5052622;28;20605;-67
2022/09/13 00:20:21;;;;;;;4.38;3.97;;;21.30;62.80;;;;;;5052084;28;20175;-67
2022/09/13 00:22:47;;;;;;;4.65;4.25;;;21.30;62.90;;;;;;5052242;28;20232;-67
2022/09/13 00:25:12;;;;;;;5.03;4.57;;;21.30;62.90;;;;;;5052489;28;20290;-67
2022/09/13 00:27:38;;;;;;;4.85;4.15;;;21.30;63.80;;;;;;5051743;28;20266;-66
2022/09/13 00:30:04;;;;;;;4.65;4.25;;;21.30;63.80;;;;;;5052484;28;20182;-66
2022/09/13 00:32:30;;;;;;;4.55;4.25;;;21.30;62.90;;;;;;5052483;28;20265;-66
2022/09/13 00:34:56;;;;;;;5.45;4.50;;;21.30;62.90;;;;;;5051574;28;20642;-66
2022/09/13 00:37:21;;;;;;;4.93;4.38;;;21.30;63.00;;;;;;5052597;28;20287;-67
2022/09/13 00:39:47;;;;;;;5.10;4.50;;;21.30;63.00;;;;;;5052103;28;20669;-67
2022/09/13 00:42:12;;;;;;;4.93;4.43;;;21.30;63.10;;;;;;5051697;28;20190;-67
2022/09/13 00:44:49;;;;;;;4.72;4.32;;;21.30;62.90;;;;;;5052403;28;20179;-67
2022/09/13 00:47:16;;;;;;;5.10;4.70;;;21.30;63.10;;;;;;5051843;28;20274;-66
2022/09/13 00:49:42;;;;;;;4.68;4.25;;;21.30;63.20;;;;;;5052408;28;20175;-66
2022/09/13 00:52:09;;;;;;;4.35;4.05;;;21.30;63.10;;;;;;5051787;28;20174;-66
2022/09/13 00:54:48;;;;;;;5.30;4.80;;;21.30;63.20;;;;;;5054238;28;20179;-67
2022/09/13 00:57:13;;;;;;;5.05;4.65;;;21.30;63.30;;;;;;5055109;28;20175;-67
2022/09/13 00:59:44;;;;;;;4.90;4.50;;;21.30;63.20;;;;;;5054909;28;20179;-67
2022/09/13 01:02:10;;;;;;;5.00;4.60;;;21.30;63.30;;;;;;5054162;28;20179;-67
2022/09/13 01:04:38;;;;;;;4.60;4.28;;;21.30;63.20;;;;;;5054719;28;20171;-66
2022/09/13 01:07:06;;;;;;;4.47;4.05;;;21.30;63.30;;;;;;5054294;28;20238;-66
2022/09/13 01:09:32;;;;;;;4.43;4.13;;;21.30;63.30;;;;;;5054103;28;20232;-66
2022/09/13 01:12:09;;;;;;;4.85;4.45;;;21.30;63.30;;;;;;5054654;28;20258;-67
2022/09/13 01:14:34;;;;;;;4.65;4.30;;;21.30;63.30;;;;;;5055753;28;20187;-67
2022/09/13 01:17:00;;;;;;;5.05;4.55;;;21.30;63.30;;;;;;5053626;28;20248;-67
2022/09/13 01:19:25;;;;;;;4.93;4.53;;;21.20;63.40;;;;;;5054566;28;20214;-67
2022/09/13 01:22:12;;;;;;;4.53;4.15;;;21.20;63.40;;;;;;5055509;28;20174;-67
2022/09/13 01:24:52;;;;;;;4.68;4.25;;;21.20;63.40;;;;;;5054476;28;20179;-67
2022/09/13 01:27:39;;;;;;;4.97;4.60;;;21.20;63.40;;;;;;5055859;28;20556;-66
2022/09/13 01:30:11;;;;;;;4.68;4.25;;;21.20;63.50;;;;;;5053347;28;20183;-66
2022/09/13 01:33:15;;;;;;;4.85;4.35;;;21.20;63.60;;;;;;5054331;28;20203;-66
2022/09/13 01:36:03;;;;;;;5.00;4.50;;;21.20;63.60;;;;;;5053938;28;20637;-66
2022/09/13 01:38:32;;;;;;;5.28;4.80;;;21.20;63.60;;;;;;5053340;28;20210;-67
2022/09/13 01:41:21;;;;;;;4.88;4.47;;;21.20;63.60;;;;;;5055115;28;20262;-67
2022/09/13 01:43:46;;;;;;;5.03;4.53;;;21.20;63.70;;;;;;5053377;28;20186;-66
2022/09/13 01:46:23;;;;;;;5.10;4.70;;;21.20;63.70;;;;;;5055306;28;20211;-66
2022/09/13 01:49:14;;;;;;;4.60;4.13;;;21.20;63.70;;;;;;5053691;28;20180;-66
2022/09/13 01:51:50;;;;;;;5.03;4.32;;;21.20;63.70;;;;;;5053129;28;20629;-66
2022/09/13 01:54:22;;;;;;;5.70;4.53;;;21.20;63.60;;;;;;5055234;28;20183;-66
2022/09/13 01:56:50;;;;;;;4.28;3.97;;;21.20;63.80;;;;;;5053684;28;20190;-66
2022/09/13 01:59:33;;;;;;;4.07;3.72;;;21.20;63.80;;;;;;5052998;28;20224;-66
2022/09/13 02:02:04;;;;;;;4.55;4.15;;;21.20;63.80;;;;;;5053625;28;20171;-66
2022/09/13 02:04:35;;;;;;;4.53;4.13;;;21.20;63.80;;;;;;5052930;28;20214;-66
2022/09/13 02:07:05;;;;;;;4.90;4.50;;;21.30;63.90;;;;;;5053213;28;20263;-66
2022/09/13 02:09:34;;;;;;;4.97;4.57;;;21.20;63.90;;;;;;5053449;28;20180;-66
2022/09/13 02:12:15;;;;;;;5.07;4.68;;;21.20;63.90;;;;;;5052833;28;20180;-66
2022/09/13 02:14:41;;;;;;;4.90;4.50;;;21.20;63.90;;;;;;5054762;28;20182;-67
2022/09/13 02:17:19;;;;;;;4.50;4.10;;;21.20;64.00;;;;;;5053318;28;20179;-67
2022/09/13 02:19:45;;;;;;;4.65;4.25;;;21.20;63.90;;;;;;5052546;28;20179;-67
2022/09/13 02:22:12;;;;;;;4.60;4.20;;;21.20;63.90;;;;;;5054402;28;20175;-67
2022/09/13 02:24:49;;;;;;;5.03;4.60;;;21.20;63.90;;;;;;5053351;28;20175;-67
2022/09/13 02:27:20;;;;;;;4.50;4.10;;;21.20;63.90;;;;;;5053782;28;20675;-66
2022/09/13 02:29:46;;;;;;;4.65;4.35;;;21.20;63.90;;;;;;5052930;28;20572;-66
2022/09/13 02:32:31;;;;;;;4.35;4.03;;;21.20;63.90;;;;;;5053113;28;20176;-66
2022/09/13 02:35:01;;;;;;;4.90;4.40;;;21.20;63.90;;;;;;5054196;28;20522;-66
2022/09/13 02:37:28;;;;;;;4.60;3.88;;;21.20;64.00;;;;;;5052865;28;20665;-66
2022/09/13 02:39:56;;;;;;;4.53;4.22;;;21.20;64.00;;;;;;5052177;28;20252;-66
2022/09/13 02:42:33;;;;;;;4.65;4.25;;;21.20;63.90;;;;;;5052961;28;20259;-66
2022/09/13 02:45:00;;;;;;;5.68;4.35;;;21.20;63.90;;;;;;5052591;28;20715;-66
2022/09/13 02:47:42;;;;;;;4.90;4.50;;;21.20;63.90;;;;;;5053159;28;20309;-66
2022/09/13 02:50:27;;;;;;;4.68;4.28;;;21.10;63.90;;;;;;5052817;28;20175;-67
2022/09/13 02:53:14;;;;;;;5.18;4.70;;;21.20;63.90;;;;;;5053735;28;20327;-67
2022/09/13 02:56:25;;;;;;;5.50;4.90;;;21.20;63.90;;;;;;5051732;28;20171;-67
2022/09/13 02:59:00;;;;;;;5.20;4.70;;;21.20;64.10;;;;;;5044870;28;20594;-67
2022/09/13 03:01:25;;;;;;;5.45;4.95;;;21.10;64.10;;;;;;5051763;28;20174;-67
2022/09/13 03:03:52;;;;;;;5.40;4.90;;;21.20;64.20;;;;;;5053293;28;20613;-67
2022/09/13 03:06:26;;;;;;;5.65;4.97;;;21.20;64.30;;;;;;5052304;28;20235;-66
2022/09/13 03:08:52;;;;;;;6.05;5.45;;;21.10;64.40;;;;;;5052786;28;20630;-69
2022/09/13 03:11:35;;;;;;;5.35;4.90;;;21.10;64.40;;;;;;5052568;28;20187;-68
2022/09/13 03:14:19;;;;;;;5.70;5.20;;;21.10;64.30;;;;;;5052152;28;20189;-67
2022/09/13 03:17:12;;;;;;;5.05;4.65;;;21.10;64.20;;;;;;5050995;28;20183;-67
2022/09/13 03:19:50;;;;;;;5.45;4.90;;;21.20;64.10;;;;;;5052187;28;20205;-67
2022/09/13 03:22:28;;;;;;;6.30;5.72;;;21.10;64.00;;;;;;5052672;28;20175;-67
2022/09/13 03:25:07;;;;;;;5.82;5.43;;;21.10;64.10;;;;;;5053130;28;20183;-67
2022/09/13 03:27:42;;;;;;;6.15;5.55;;;21.10;64.10;;;;;;5053296;28;20195;-67
2022/09/13 03:30:10;;;;;;;5.95;5.35;;;21.10;64.20;;;;;;5051391;28;20253;-66
2022/09/13 03:32:49;;;;;;;5.13;4.72;;;21.10;64.30;;;;;;5052069;28;20179;-66
2022/09/13 03:35:42;;;;;;;5.60;5.20;;;21.10;64.20;;;;;;5052055;28;20201;-66
2022/09/13 03:38:09;;;;;;;6.15;5.55;;;21.10;64.30;;;;;;5049164;28;20649;-67
2022/09/13 03:40:44;;;;;;;5.32;4.90;;;21.10;64.20;;;;;;5051828;28;20183;-67
2022/09/13 03:43:41;;;;;;;5.30;4.88;;;21.10;64.20;;;;;;5051276;28;20192;-67
2022/09/13 03:46:13;;;;;;;6.97;5.50;;;21.10;64.20;;;;;;5051326;28;20303;-67
2022/09/13 03:48:39;;;;;;;6.82;5.25;;;21.10;64.30;;;;;;5051898;28;20312;-66
2022/09/13 03:51:05;;;;;;;6.10;5.22;;;21.10;64.30;;;;;;5050769;28;20244;-67
2022/09/13 03:53:30;;;;;;;5.95;5.38;;;21.10;64.40;;;;;;5051653;28;20201;-67
2022/09/13 03:55:56;;;;;;;6.93;5.20;;;21.10;64.50;;;;;;5051407;28;20634;-67
2022/09/13 03:58:23;;;;;;;5.35;4.93;;;21.00;64.40;;;;;;5052313;28;20237;-67
2022/09/13 04:00:49;;;;;;;5.95;5.43;;;21.10;64.50;;;;;;5052815;28;20182;-67
2022/09/13 04:03:15;;;;;;;6.78;5.55;;;21.10;64.40;;;;;;5052949;28;20175;-66
2022/09/13 04:05:40;;;;;;;5.72;5.10;;;21.10;64.40;;;;;;5051834;28;20223;-67
2022/09/13 04:08:06;;;;;;;5.45;4.93;;;21.10;64.40;;;;;;5052468;28;20182;-66
2022/09/13 04:10:32;;;;;;;5.65;5.15;;;21.10;64.50;;;;;;5052441;28;20183;-67
2022/09/13 04:12:59;;;;;;;5.35;4.90;;;21.10;64.50;;;;;;5052016;28;20175;-67
2022/09/13 04:15:27;;;;;;;5.75;5.22;;;21.00;64.50;;;;;;5052561;28;20618;-67
2022/09/13 04:17:53;;;;;;;5.35;4.95;;;21.10;64.60;;;;;;5052516;28;20183;-67
2022/09/13 04:20:19;;;;;;;5.50;5.10;;;21.00;64.70;;;;;;5051978;28;20179;-67
2022/09/13 04:22:54;;;;;;;5.57;5.10;;;21.10;64.70;;;;;;5052332;28;20254;-67
2022/09/13 04:25:21;;;;;;;5.40;4.90;;;21.10;64.70;;;;;;5051845;28;20199;-66
2022/09/13 04:27:46;;;;;;;5.75;5.25;;;21.00;64.70;;;;;;5054326;28;20262;-66
2022/09/13 04:30:12;;;;;;;6.00;5.40;;;21.00;64.80;;;;;;5056803;28;20262;-65
2022/09/13 04:32:37;;;;;;;5.10;4.70;;;21.00;64.80;;;;;;5055835;28;20310;-65
2022/09/13 04:35:03;;;;;;;6.15;4.85;;;21.10;64.90;;;;;;5056416;28;20167;-66
2022/09/13 04:37:29;;;;;;;5.50;5.00;;;21.10;64.90;;;;;;5056325;28;20171;-66
2022/09/13 04:39:54;;;;;;;5.78;5.32;;;21.10;65.00;;;;;;5055479;28;20229;-66
2022/09/13 04:42:20;;;;;;;5.40;4.97;;;21.10;64.90;;;;;;5056326;28;20224;-66
2022/09/13 04:44:48;;;;;;;5.20;4.65;;;21.00;65.00;;;;;;5055983;28;20175;-66
2022/09/13 04:47:13;;;;;;;6.50;5.38;;;21.00;64.90;;;;;;5055506;28;20289;-66
2022/09/13 04:49:39;;;;;;;6.22;5.72;;;21.00;64.90;;;;;;5055989;28;20256;-66
2022/09/13 04:52:04;;;;;;;5.50;5.00;;;21.00;64.90;;;;;;5056115;28;20210;-66
2022/09/13 04:54:30;;;;;;;6.80;5.68;;;21.00;64.90;;;;;;5055246;28;20214;-66
2022/09/13 04:56:55;;;;;;;7.03;6.25;;;21.00;65.00;;;;;;5055856;28;20179;-66
2022/09/13 04:59:21;;;;;;;6.35;5.63;;;21.00;64.90;;;;;;5056148;28;20183;-66
2022/09/13 05:01:46;;;;;;;5.93;5.32;;;21.00;65.00;;;;;;5055244;28;20186;-66
2022/09/13 05:04:12;;;;;;;5.80;5.30;;;21.00;64.90;;;;;;5056051;28;20175;-66
2022/09/13 05:06:37;;;;;;;5.78;5.28;;;21.00;65.00;;;;;;5055468;28;20238;-65
2022/09/13 05:09:03;;;;;;;6.55;5.95;;;21.00;65.10;;;;;;5054928;28;20187;-66
2022/09/13 05:11:29;;;;;;;6.13;5.20;;;21.00;65.00;;;;;;5055779;28;20200;-66
2022/09/13 05:13:56;;;;;;;6.05;5.55;;;21.00;65.10;;;;;;5055755;28;20178;-66
2022/09/13 05:16:22;;;;;;;6.18;5.68;;;21.00;65.10;;;;;;5055049;28;20175;-66
2022/09/13 05:18:48;;;;;;;6.88;6.18;;;21.00;65.00;;;;;;5055613;28;20182;-67
2022/09/13 05:21:13;;;;;;;6.30;5.65;;;21.00;65.00;;;;;;5055572;28;20175;-67
2022/09/13 05:23:39;;;;;;;6.32;5.68;;;21.00;65.00;;;;;;5055176;28;20201;-67
2022/09/13 05:26:05;;;;;;;6.75;6.07;;;21.00;65.00;;;;;;5055396;28;20215;-66
2022/09/13 05:28:32;;;;;;;6.38;5.40;;;21.00;65.00;;;;;;5054797;28;20250;-66
2022/09/13 05:31:03;;;;;;;7.00;6.40;;;21.00;64.90;;;;;;5055413;28;20270;-65
2022/09/13 05:33:31;;;;;;;6.32;5.75;;;21.00;64.90;;;;;;5055350;28;20207;-65
2022/09/13 05:35:56;;;;;;;8.25;6.30;;;21.00;65.10;;;;;;5054385;28;20190;-66
2022/09/13 05:38:22;;;;;;;6.43;5.90;;;21.00;65.10;;;;;;5055031;28;20171;-66
2022/09/13 05:40:47;;;;;;;6.05;5.55;;;21.00;65.00;;;;;;5055260;28;20178;-67
2022/09/13 05:43:13;;;;;;;6.07;5.35;;;21.00;65.00;;;;;;5054455;28;20179;-66
2022/09/13 05:45:39;;;;;;;5.72;5.20;;;21.00;65.10;;;;;;5055207;28;20206;-66
2022/09/13 05:48:05;;;;;;;6.18;5.60;;;21.00;65.10;;;;;;5055108;28;20179;-66
2022/09/13 05:50:30;;;;;;;5.70;5.20;;;21.00;65.10;;;;;;5054223;28;20626;-66
2022/09/13 05:52:56;;;;;;;5.50;5.00;;;21.00;65.10;;;;;;5055027;28;20182;-66
2022/09/13 05:55:22;;;;;;;6.32;5.72;;;21.00;65.00;;;;;;5055145;28;20236;-66
2022/09/13 05:57:48;;;;;;;6.20;5.60;;;21.00;65.00;;;;;;5053835;28;20259;-66
2022/09/13 06:00:14;;;;;;;5.93;5.38;;;21.00;65.00;;;;;;5055096;28;20637;-66
2022/09/13 06:02:40;;;;;;;6.05;5.50;;;21.00;65.00;;;;;;5054729;28;20175;-65
2022/09/13 06:05:06;;;;;;;7.07;5.45;;;21.00;64.90;;;;;;5053565;28;20200;-65
2022/09/13 06:07:32;;;;;;;8.18;5.82;;;21.00;64.90;;;;;;5054896;28;20179;-66
2022/09/13 06:09:57;;;;;;;5.78;5.28;;;21.00;64.80;;;;;;5054653;28;20171;-66
2022/09/13 06:12:23;;;;;;;6.13;5.57;;;21.00;64.70;;;;;;5054003;28;20170;-67
2022/09/13 06:14:48;;;;;;;6.07;5.47;;;21.10;64.90;;;;;;5054468;28;20163;-67
2022/09/13 06:17:14;;;;;;;6.40;5.80;;;21.00;64.70;;;;;;5054838;28;20203;-67
2022/09/13 06:19:39;;;;;;;7.32;6.63;;;21.00;64.80;;;;;;5053681;28;20266;-67
2022/09/13 06:22:05;;;;;;;7.07;5.93;;;21.00;64.90;;;;;;5054213;28;20262;-67
2022/09/13 06:24:30;;;;;;;7.97;6.90;;;21.00;64.90;;;;;;5054348;28;20187;-67
2022/09/13 06:26:56;;;;;;;6.40;5.80;;;21.00;64.90;;;;;;5053472;28;20222;-66
2022/09/13 06:29:22;;;;;;;7.05;6.07;;;21.00;64.80;;;;;;5054480;28;20174;-66
2022/09/13 06:31:47;;;;;;;6.93;6.25;;;21.00;64.90;;;;;;5053238;28;20577;-65
2022/09/13 06:34:14;;;;;;;7.35;5.78;;;21.10;65.10;;;;;;5054126;28;20233;-66
2022/09/13 06:36:40;;;;;;;6.80;5.97;;;21.10;65.10;;;;;;5054008;28;20194;-67
2022/09/13 06:39:06;;;;;;;6.53;5.93;;;21.10;65.10;;;;;;5053416;28;20180;-66
2022/09/13 06:41:32;;;;;;;6.78;5.63;;;21.00;65.10;;;;;;5054107;28;20589;-67
2022/09/13 06:43:58;;;;;;;6.28;5.78;;;21.10;65.10;;;;;;5053465;28;20629;-67
2022/09/13 06:46:25;;;;;;;6.18;5.68;;;21.10;64.80;;;;;;5053064;28;20206;-66
2022/09/13 06:48:51;;;;;;;6.18;5.57;;;21.10;64.80;;;;;;5053482;28;20228;-67
2022/09/13 06:51:19;;;;;;;6.35;5.80;;;21.10;64.90;;;;;;5053332;28;20232;-67
2022/09/13 06:53:46;;;;;;;6.80;5.78;;;21.10;64.80;;;;;;5052887;28;20262;-67
2022/09/13 06:56:23;;;;;;;6.82;6.10;;;21.20;64.70;;;;;;5053637;28;20182;-67
2022/09/13 06:58:50;;;;;;;6.88;6.18;;;21.20;64.90;;;;;;5053194;28;20198;-67
2022/09/13 07:01:36;;;;;;;6.57;5.78;;;21.20;64.80;;;;;;5053061;28;20179;-66
2022/09/13 07:04:03;;;;;;;10.13;6.80;;;21.20;64.70;;;;;;5053035;28;20622;-65
2022/09/13 07:06:30;;;;;;;6.70;6.10;;;21.30;64.80;;;;;;5053278;28;20288;-65
2022/09/13 07:08:57;;;;;;;7.75;6.28;;;21.20;64.90;;;;;;5052672;28;20645;-66
2022/09/13 07:11:24;;;;;;;7.38;6.18;;;21.20;64.90;;;;;;5053540;28;20186;-66
2022/09/13 07:13:50;;;;;;;5.97;5.35;;;21.20;64.70;;;;;;5052642;28;20179;-68
2022/09/13 07:16:16;;;;;;;6.45;5.70;;;21.20;65.00;;;;;;5053731;28;20182;-68
2022/09/13 07:18:42;;;;;;;6.57;5.90;;;21.20;64.90;;;;;;5053254;28;20179;-67
2022/09/13 07:21:08;;;;;;;6.72;5.90;;;21.20;64.80;;;;;;5052597;28;20171;-68
2022/09/13 07:23:35;;;;;;;6.47;5.88;;;21.20;64.80;;;;;;5053193;28;20579;-67
2022/09/13 07:26:01;;;;;;;7.97;6.00;;;21.20;64.90;;;;;;5053046;28;20222;-67
2022/09/13 07:28:40;;;;;;;6.10;5.50;;;21.20;65.00;;;;;;5052404;28;20507;-67
2022/09/13 07:31:17;;;;;;;6.00;5.40;;;21.20;64.90;;;;;;5053063;28;20262;-66
2022/09/13 07:33:43;;;;;;;6.00;5.50;;;21.20;64.90;;;;;;5053096;28;20566;-67
2022/09/13 07:36:10;;;;;;;5.80;5.30;;;21.20;65.80;;;;;;5052019;28;20175;-67
2022/09/13 07:38:36;;;;;;;5.50;5.00;;;21.20;64.90;;;;;;5052748;28;20187;-68
2022/09/13 07:41:05;;;;;;;6.32;5.72;;;21.20;64.90;;;;;;5052078;28;20171;-67
2022/09/13 07:43:33;;;;;;;6.13;5.53;;;21.20;64.90;;;;;;5051943;28;20233;-67
2022/09/13 07:46:00;;;;;;;10.40;5.40;;;21.20;64.90;;;;;;5052879;28;20211;-67
2022/09/13 07:48:27;;;;;;;6.30;5.20;;;21.20;64.80;;;;;;5052938;28;20175;-67
2022/09/13 07:51:00;;;;;;;5.82;5.22;;;21.30;64.80;;;;;;5052041;28;20179;-67
2022/09/13 07:53:25;;;;;;;5.32;4.82;;;21.20;64.70;;;;;;5052723;28;20175;-67
2022/09/13 07:55:51;;;;;;;5.30;4.80;;;21.30;64.80;;;;;;5052851;28;20175;-67
2022/09/13 07:58:17;;;;;;;5.20;4.80;;;21.30;64.80;;;;;;5052126;28;20599;-67
2022/09/13 08:00:43;;;;;;;5.07;4.57;;;21.30;64.70;;;;;;5052620;28;20267;-67
2022/09/13 08:03:09;;;;;;;5.50;5.00;;;21.30;64.50;;;;;;5052025;28;20207;-67
2022/09/13 08:05:39;;;;;;;5.18;4.78;;;21.30;64.50;;;;;;5051092;28;20693;-66
2022/09/13 08:08:06;;;;;;;5.13;4.65;;;21.30;64.40;;;;;;5052501;28;20219;-67
2022/09/13 08:10:34;;;;;;;5.10;4.70;;;21.30;64.40;;;;;;5052045;28;20198;-67
2022/09/13 08:13:00;;;;;;;5.32;4.82;;;21.40;64.60;;;;;;5052667;28;20175;-68
2022/09/13 08:15:25;;;;;;;5.47;4.57;;;21.40;64.60;;;;;;5052676;28;20546;-67
2022/09/13 08:17:52;;;;;;;5.57;5.07;;;21.30;64.60;;;;;;5051799;28;20228;-67
2022/09/13 08:20:18;;;;;;;5.50;5.10;;;21.30;64.70;;;;;;5052480;28;20633;-67
2022/09/13 08:22:44;;;;;;;5.60;5.18;;;21.30;64.60;;;;;;5052484;28;20182;-67
2022/09/13 08:25:10;;;;;;;6.03;4.72;;;21.30;64.70;;;;;;5051970;28;20171;-67
2022/09/13 08:27:35;;;;;;;5.03;4.63;;;21.30;65.40;;;;;;5052470;28;20205;-67
2022/09/13 08:30:01;;;;;;;5.55;5.05;;;21.30;64.80;;;;;;5052295;28;20171;-66
2022/09/13 08:32:27;;;;;;;5.10;4.60;;;21.30;64.90;;;;;;5051764;28;20183;-66
2022/09/13 08:34:52;;;;;;;5.22;4.70;;;21.30;64.90;;;;;;5052466;28;20183;-67
2022/09/13 08:37:18;;;;;;;4.85;4.45;;;21.40;64.90;;;;;;5052617;28;20182;-67
2022/09/13 08:39:43;;;;;;;5.53;4.63;;;21.30;64.90;;;;;;5051862;28;20275;-67
2022/09/13 08:42:33;;;;;;;5.13;4.63;;;21.40;64.70;;;;;;5052150;28;20171;-67
2022/09/13 08:44:58;;;;;;;4.78;4.38;;;21.40;64.70;;;;;;5052222;28;20199;-67
2022/09/13 08:47:34;;;;;;;4.75;4.35;;;21.40;64.60;;;;;;5051553;28;20242;-67
2022/09/13 08:50:00;;;;;;;5.18;4.65;;;21.40;64.60;;;;;;5052580;28;20171;-67
2022/09/13 08:52:46;;;;;;;4.72;4.32;;;21.50;64.50;;;;;;5051601;28;20228;-67
2022/09/13 08:55:50;;;;;;;4.20;3.90;;;21.50;64.40;;;;;;5052339;28;20221;-67
2022/09/13 08:58:24;;;;;;;5.05;4.65;;;21.60;64.40;;;;;;5051277;28;20179;-67
2022/09/13 09:00:54;;;;;;;4.38;4.07;;;21.60;64.40;;;;;;5051361;28;20266;-67
2022/09/13 09:03:37;;;;;;;4.38;4.07;;;21.60;64.40;;;;;;5051123;28;20259;-67
2022/09/13 09:06:06;;;;;;;4.82;4.43;;;21.60;64.50;;;;;;5050630;28;20237;-67
2022/09/13 09:08:37;;;;;;;4.75;4.35;;;21.60;64.50;;;;;;5050224;28;20180;-67
2022/09/13 09:11:08;;;;;;;4.45;4.10;;;21.60;64.50;;;;;;5050916;28;20176;-68
2022/09/13 09:13:36;;;;;;;4.53;4.22;;;21.60;64.50;;;;;;5051811;28;20175;-68
2022/09/13 09:16:24;;;;;;;4.70;4.30;;;21.60;64.60;;;;;;5054815;28;20183;-67
2022/09/13 09:18:50;;;;;;;5.13;4.07;;;21.60;64.80;;;;;;5054315;28;20186;-67
2022/09/13 09:21:17;;;;;;;5.13;4.63;;;21.60;65.20;;;;;;5055150;28;20176;-67
2022/09/13 09:23:50;;;;;;;4.78;4.15;;;21.60;65.10;;;;;;5055637;28;20186;-67
2022/09/13 09:26:25;;;;;;;4.50;4.13;;;21.60;65.20;;;;;;5055661;28;20206;-66
2022/09/13 09:28:54;;;;;;;4.20;3.80;;;21.60;65.20;;;;;;5054610;28;20178;-68
2022/09/13 09:32:02;;;;;;;6.60;4.18;;;21.60;65.70;;;;;;5055407;28;20558;-65
2022/09/13 09:34:31;;;;;;;4.57;3.70;;;21.60;66.60;;;;;;5053997;28;20642;-68
2022/09/13 09:37:08;;;;;;;4.32;3.90;;;21.70;65.70;;;;;;5055145;28;20194;-67
2022/09/13 09:39:37;;;;;;;4.00;3.70;;;21.70;65.60;;;;;;5055121;28;20177;-67
2022/09/13 09:42:04;;;;;;;4.38;3.88;;;21.70;65.50;;;;;;5054420;28;20182;-67
2022/09/13 09:44:32;;;;;;;4.20;3.80;;;21.70;65.40;;;;;;5055389;28;20168;-67
2022/09/13 09:47:17;;;;;;;4.10;3.70;;;21.70;65.40;;;;;;5053856;28;20219;-66
2022/09/13 09:50:09;;;;;;;4.60;3.65;;;21.70;65.50;;;;;;5054331;28;20175;-66
2022/09/13 09:52:41;;;;;;;3.72;3.42;;;21.70;65.50;;;;;;5054049;28;20179;-66
2022/09/13 09:55:25;;;;;;;6.07;3.55;;;21.80;65.50;;;;;;5054682;28;20189;-67
2022/09/13 09:57:55;;;;;;;3.72;3.33;;;21.80;65.40;;;;;;5053039;28;20251;-64
2022/09/13 10:00:22;;;;;;;5.20;3.63;;;21.80;65.40;;;;;;5054824;28;20179;-65
2022/09/13 10:02:48;;;;;;;3.65;3.30;;;21.80;65.40;;;;;;5052926;28;20183;-67
2022/09/13 10:05:18;;;;;;;7.47;3.67;;;21.80;65.40;;;;;;5053535;28;20171;-65
2022/09/13 10:07:52;;;;;;;4.28;3.80;;;21.90;65.50;;;;;;5054599;28;20604;-66
2022/09/13 10:10:49;;;;;;;4.75;3.67;;;21.90;65.50;;;;;;5052990;28;20175;-67
2022/09/13 10:13:17;;;;;;;5.85;3.83;;;21.90;65.40;;;;;;5053342;28;20275;-67
2022/09/13 10:15:54;;;;;;;4.57;3.58;;;21.90;65.40;;;;;;5053288;28;20487;-67
2022/09/13 10:18:21;;;;;;;5.22;3.60;;;21.90;65.20;;;;;;5053836;28;20171;-68
2022/09/13 10:21:06;;;;;;;3.53;3.22;;;21.90;65.10;;;;;;5054336;28;20182;-67
2022/09/13 10:23:34;;;;;;;5.00;3.15;;;22.00;65.10;;;;;;5054302;28;20175;-68
2022/09/13 10:26:04;;;;;;;4.78;3.03;;;22.00;65.00;;;;;;5053589;28;20572;-67
2022/09/13 10:28:31;;;;;;;7.03;3.13;;;22.10;65.00;;;;;;5053157;28;20178;-67
2022/09/13 10:31:10;;;;;;;5.10;3.03;;;22.10;64.90;;;;;;5052408;28;20179;-67
2022/09/13 10:33:45;;;;;;;3.65;3.10;;;22.10;64.80;;;;;;5053062;28;20179;-67
2022/09/13 10:36:13;;;;;;;3.65;3.30;;;22.10;64.80;;;;;;5053428;28;20209;-67
2022/09/13 10:38:40;;;;;;;3.47;3.00;;;22.10;64.80;;;;;;5053545;28;20250;-68
2022/09/13 10:41:10;;;;;;;5.30;2.92;;;22.10;64.80;;;;;;5052962;28;20175;-67
2022/09/13 10:43:36;;;;;;;3.08;2.80;;;22.10;64.90;;;;;;5054038;28;20622;-67
2022/09/13 10:46:03;;;;;;;4.43;2.92;;;22.10;64.80;;;;;;5053090;28;20214;-67
2022/09/13 10:48:30;;;;;;;4.72;2.83;;;22.10;64.90;;;;;;5055546;28;20230;-67
2022/09/13 10:51:02;;;;;;;4.15;2.60;;;22.00;64.90;;;;;;5052728;28;20171;-67
2022/09/13 10:53:38;;;;;;;6.82;3.30;;;22.10;64.90;;;;;;5052979;28;20522;-66
2022/09/13 10:56:04;;;;;;;6.00;3.10;;;22.10;64.90;;;;;;5053671;28;20174;-67
2022/09/13 10:58:29;;;;;;;5.28;3.10;;;22.20;64.80;;;;;;5053710;28;20171;-65
2022/09/13 11:01:13;;;;;;;4.63;2.90;;;22.20;64.70;;;;;;5052771;28;20224;-67
2022/09/13 11:04:04;;;;;;;3.80;2.67;;;22.20;64.60;;;;;;5053830;28;20186;-67
2022/09/13 11:07:07;;;;;;;5.03;2.70;;;22.20;64.60;;;;;;5052748;28;20258;-69
2022/09/13 11:10:02;;;;;;;3.05;2.50;;;22.20;64.70;;;;;;5053662;28;20178;-67
2022/09/13 11:12:30;;;;;;;3.58;2.65;;;22.20;64.70;;;;;;5052193;28;20179;-69
2022/09/13 11:15:24;;;;;;;3.92;2.70;;;22.20;64.70;;;;;;5051467;28;20266;-67
2022/09/13 11:18:20;;;;;;;3.05;2.50;;;22.30;64.70;;;;;;5052242;28;20687;-66
2022/09/13 11:20:57;;;;;;;4.63;2.50;;;22.30;64.50;;;;;;5052515;28;20175;-67
2022/09/13 11:23:33;;;;;;;3.17;2.47;;;22.40;64.40;;;;;;5053218;28;20246;-65
2022/09/13 11:26:20;;;;;;;12.17;3.67;;;22.40;64.40;;;;;;5051695;28;20482;-66
2022/09/13 11:28:57;;;;;;;13.18;3.78;;;22.40;64.40;;;;;;5052452;28;20171;-67
2022/09/13 11:31:43;;;;;;;8.55;3.17;;;22.40;64.50;;;;;;5051884;28;20178;-69
2022/09/13 11:34:21;;;;;;;8.32;3.08;;;22.60;64.20;;;;;;5052357;28;20657;-70
2022/09/13 11:37:12;;;;;;;12.20;2.90;;;22.60;63.90;;;;;;5051460;28;20520;-66
2022/09/13 11:40:03;;;;;;;5.50;2.85;;;22.60;63.70;;;;;;5052028;28;20254;-67
2022/09/13 11:42:50;;;;;;;8.90;2.80;;;22.60;64.20;;;;;;5032018;28;20189;-67
2022/09/13 11:45:19;;;;;;;6.85;2.65;;;22.50;64.10;;;;;;5053266;28;20182;-66
2022/09/13 11:47:54;;;;;;;4.43;2.17;;;22.50;64.20;;;;;;5051977;28;20194;-67
2022/09/13 11:50:54;;;;;;;5.45;2.00;;;22.50;64.20;;;;;;5052279;28;20170;-67
2022/09/13 11:53:36;;;;;;;3.88;2.20;;;22.50;64.40;;;;;;5052137;28;20247;-66
2022/09/13 11:56:10;;;;;;;4.53;2.22;;;22.50;64.20;;;;;;5052131;28;20179;-67
2022/09/13 11:58:37;;;;;;;5.05;2.60;;;22.60;64.00;;;;;;5051832;28;20174;-67
2022/09/13 12:01:10;;;;;;;3.33;2.20;;;22.70;63.90;;;;;;5052700;28;20183;-67
2022/09/13 12:03:56;;;;;;;3.65;2.10;;;22.80;63.60;;;;;;5050688;28;20187;-66
2022/09/13 12:06:29;;;;;;;3.88;2.05;;;22.80;63.50;;;;;;5052535;28;20790;-66
2022/09/13 12:09:14;;;;;;;2.20;2.00;;;22.80;63.60;;;;;;5051300;28;20642;-66
2022/09/13 12:11:42;;;;;;;2.33;2.10;;;22.70;63.70;;;;;;5051416;28;20191;-67
2022/09/13 12:14:15;;;;;;;6.75;2.28;;;22.70;63.90;;;;;;5051429;28;20232;-67
2022/09/13 12:16:43;;;;;;;3.22;2.03;;;22.60;64.80;;;;;;5050853;28;20214;-67
2022/09/13 12:19:28;;;;;;;5.95;1.83;;;22.50;64.00;;;;;;5051326;28;20175;-67
2022/09/13 12:21:55;;;;;;;2.95;1.70;;;22.50;64.10;;;;;;5051418;28;20179;-67
2022/09/13 12:24:39;;;;;;;3.03;1.95;;;22.50;64.10;;;;;;5050740;28;20182;-66
2022/09/13 12:27:13;;;;;;;2.97;1.95;;;22.50;64.10;;;;;;5051342;28;20214;-66
2022/09/13 12:29:45;;;;;;;3.03;1.63;;;22.60;63.90;;;;;;5051201;28;20179;-65
2022/09/13 12:32:16;;;;;;;3.22;1.90;;;22.70;63.70;;;;;;5050695;28;20171;-65
2022/09/13 12:34:45;;;;;;;1.75;1.65;;;22.70;63.40;;;;;;5051143;28;20175;-65
2022/09/13 12:37:43;;;;;;;2.47;1.63;;;22.80;63.40;;;;;;5051028;28;20556;-66
2022/09/13 12:40:45;;;;;;;1.55;1.40;;;22.80;63.30;;;;;;5051385;28;20183;-66
2022/09/13 12:43:14;;;;;;;2.92;1.98;;;22.80;63.40;;;;;;5052454;28;20185;-66
2022/09/13 12:46:08;;;;;;;2.00;1.77;;;22.80;64.30;;;;;;5050710;28;20195;-66
2022/09/13 12:49:01;;;;;;;1.67;1.33;;;22.70;63.50;;;;;;5053800;28;20176;-67
2022/09/13 12:52:00;;;;;;;1.67;1.50;;;22.60;63.60;;;;;;5055425;28;20179;-66
2022/09/13 12:54:41;;;;;;;2.10;1.60;;;22.60;63.70;;;;;;5055066;28;20267;-66
2022/09/13 12:57:44;;;;;;;1.58;1.35;;;22.60;63.80;;;;;;5054961;28;20198;-66
2022/09/13 13:00:22;;;;;;;3.05;1.50;;;22.60;63.80;;;;;;5055569;28;20252;-66
2022/09/13 13:02:59;;;;;;;2.17;1.33;;;22.50;63.80;;;;;;5054800;28;20178;-66
2022/09/13 13:05:37;;;;;;;1.50;1.40;;;22.60;63.70;;;;;;5055771;28;20222;-65
2022/09/13 13:08:04;;;;;;;1.48;1.38;;;22.80;63.40;;;;;;5054481;28;20182;-65
2022/09/13 13:10:34;;;;;;;1.70;1.60;;;22.90;63.00;;;;;;5055674;28;20660;-66